sensor_id;sensor_type;location;lat;lon;timestamp;temperature;humidity
46366;DHT22;32073;49.166;8.076;2023-06-14T00:02:15;22.70;29.90
46366;DHT22;32073;49.166;8.076;2023-06-14T00:06:16;22.60;29.90
46366;DHT22;32073;49.166;8.076;2023-06-14T00:10:17;22.60;30.00
46366;DHT22;32073;49.166;8.076;2023-06-14T00:14:18;22.60;30.00
46366;DHT22;32073;49.166;8.076;2023-06-14T00:18:19;22.50;30.00
46366;DHT22;32073;49.166;8.076;2023-06-14T00:22:19;22.40;30.10
46366;DHT22;32073;49.166;8.076;2023-06-14T00:26:20;22.40;30.20
46366;DHT22;32073;49.166;8.076;2023-06-14T00:30:21;22.40;30.20
46366;DHT22;32073;49.166;8.076;2023-06-14T00:34:21;22.40;30.40
46366;DHT22;32073;49.166;8.076;2023-06-14T00:38:22;22.40;30.40
46366;DHT22;32073;49.166;8.076;2023-06-14T00:42:26;22.50;30.50
46366;DHT22;32073;49.166;8.076;2023-06-14T00:46:28;22.30;30.50
46366;DHT22;32073;49.166;8.076;2023-06-14T00:50:30;22.30;30.50
46366;DHT22;32073;49.166;8.076;2023-06-14T00:54:32;22.20;30.60
46366;DHT22;32073;49.166;8.076;2023-06-14T00:58:33;22.30;30.70
46366;DHT22;32073;49.166;8.076;2023-06-14T01:02:33;22.30;30.70
46366;DHT22;32073;49.166;8.076;2023-06-14T01:06:50;22.30;30.80
46366;DHT22;32073;49.166;8.076;2023-06-14T01:11:22;22.20;31.00
46366;DHT22;32073;49.166;8.076;2023-06-14T01:15:30;22.20;31.10
46366;DHT22;32073;49.166;8.076;2023-06-14T01:19:32;22.10;30.90
46366;DHT22;32073;49.166;8.076;2023-06-14T01:23:34;22.10;31.00
46366;DHT22;32073;49.166;8.076;2023-06-14T01:27:35;22.10;31.10
46366;DHT22;32073;49.166;8.076;2023-06-14T01:31:35;22.10;31.10
46366;DHT22;32073;49.166;8.076;2023-06-14T01:35:43;22.00;31.00
46366;DHT22;32073;49.166;8.076;2023-06-14T01:39:45;22.00;31.40
46366;DHT22;32073;49.166;8.076;2023-06-14T01:43:49;22.00;31.30
46366;DHT22;32073;49.166;8.076;2023-06-14T01:47:51;22.00;31.40
46366;DHT22;32073;49.166;8.076;2023-06-14T01:51:52;22.00;31.60
46366;DHT22;32073;49.166;8.076;2023-06-14T01:55:53;22.00;31.50
46366;DHT22;32073;49.166;8.076;2023-06-14T01:59:54;21.90;31.40
46366;DHT22;32073;49.166;8.076;2023-06-14T02:03:55;21.90;31.50
46366;DHT22;32073;49.166;8.076;2023-06-14T02:07:56;21.80;31.50
46366;DHT22;32073;49.166;8.076;2023-06-14T02:11:56;21.90;31.70
46366;DHT22;32073;49.166;8.076;2023-06-14T02:15:57;21.90;31.70
46366;DHT22;32073;49.166;8.076;2023-06-14T02:19:58;21.80;31.70
46366;DHT22;32073;49.166;8.076;2023-06-14T02:23:58;21.80;31.80
46366;DHT22;32073;49.166;8.076;2023-06-14T02:27:59;21.80;31.90
46366;DHT22;32073;49.166;8.076;2023-06-14T02:32:00;21.80;32.20
46366;DHT22;32073;49.166;8.076;2023-06-14T02:36:01;21.70;32.10
46366;DHT22;32073;49.166;8.076;2023-06-14T02:40:03;21.60;32.80
46366;DHT22;32073;49.166;8.076;2023-06-14T02:44:06;21.60;32.10
46366;DHT22;32073;49.166;8.076;2023-06-14T02:48:07;21.50;32.40
46366;DHT22;32073;49.166;8.076;2023-06-14T02:52:07;21.40;32.40
46366;DHT22;32073;49.166;8.076;2023-06-14T02:56:10;21.50;32.50
46366;DHT22;32073;49.166;8.076;2023-06-14T03:00:12;21.50;32.60
46366;DHT22;32073;49.166;8.076;2023-06-14T03:04:13;21.40;32.80
46366;DHT22;32073;49.166;8.076;2023-06-14T03:08:15;21.40;32.70
46366;DHT22;32073;49.166;8.076;2023-06-14T03:12:17;21.30;32.70
46366;DHT22;32073;49.166;8.076;2023-06-14T03:16:18;21.30;32.80
46366;DHT22;32073;49.166;8.076;2023-06-14T03:20:24;21.20;32.80
46366;DHT22;32073;49.166;8.076;2023-06-14T03:24:30;21.20;32.90
46366;DHT22;32073;49.166;8.076;2023-06-14T03:28:36;21.10;32.90
46366;DHT22;32073;49.166;8.076;2023-06-14T03:32:37;21.10;33.00
46366;DHT22;32073;49.166;8.076;2023-06-14T03:36:37;21.10;33.00
46366;DHT22;32073;49.166;8.076;2023-06-14T03:40:38;21.10;33.10
46366;DHT22;32073;49.166;8.076;2023-06-14T03:44:39;21.00;33.10
46366;DHT22;32073;49.166;8.076;2023-06-14T03:48:39;21.00;33.10
46366;DHT22;32073;49.166;8.076;2023-06-14T03:52:40;21.00;33.90
46366;DHT22;32073;49.166;8.076;2023-06-14T03:56:43;21.00;33.30
46366;DHT22;32073;49.166;8.076;2023-06-14T04:00:43;21.00;33.30
46366;DHT22;32073;49.166;8.076;2023-06-14T04:04:45;21.00;33.40
46366;DHT22;32073;49.166;8.076;2023-06-14T04:08:46;21.00;33.50
46366;DHT22;32073;49.166;8.076;2023-06-14T04:12:46;21.00;33.50
46366;DHT22;32073;49.166;8.076;2023-06-14T04:16:48;21.00;33.60
46366;DHT22;32073;49.166;8.076;2023-06-14T04:20:49;21.10;33.70
46366;DHT22;32073;49.166;8.076;2023-06-14T04:24:50;21.10;33.80
46366;DHT22;32073;49.166;8.076;2023-06-14T04:28:53;21.10;33.80
46366;DHT22;32073;49.166;8.076;2023-06-14T04:32:57;21.10;33.90
46366;DHT22;32073;49.166;8.076;2023-06-14T04:36:57;21.10;34.00
46366;DHT22;32073;49.166;8.076;2023-06-14T04:40:59;21.20;34.10
46366;DHT22;32073;49.166;8.076;2023-06-14T04:45:02;21.20;34.20
46366;DHT22;32073;49.166;8.076;2023-06-14T04:49:03;21.20;34.20
46366;DHT22;32073;49.166;8.076;2023-06-14T04:53:03;21.30;34.30
46366;DHT22;32073;49.166;8.076;2023-06-14T04:57:04;21.30;34.40
46366;DHT22;32073;49.166;8.076;2023-06-14T05:01:05;21.50;35.10
46366;DHT22;32073;49.166;8.076;2023-06-14T05:05:09;22.00;36.10
46366;DHT22;32073;49.166;8.076;2023-06-14T05:09:13;22.70;36.60
46366;DHT22;32073;49.166;8.076;2023-06-14T05:13:14;23.70;36.70
46366;DHT22;32073;49.166;8.076;2023-06-14T05:17:15;24.40;36.20
46366;DHT22;32073;49.166;8.076;2023-06-14T05:21:17;25.20;35.60
46366;DHT22;32073;49.166;8.076;2023-06-14T05:25:22;25.90;35.10
46366;DHT22;32073;49.166;8.076;2023-06-14T05:29:22;26.50;34.60
46366;DHT22;32073;49.166;8.076;2023-06-14T05:33:23;27.10;34.10
46366;DHT22;32073;49.166;8.076;2023-06-14T05:37:27;27.50;33.40
46366;DHT22;32073;49.166;8.076;2023-06-14T05:41:30;28.00;32.90
46366;DHT22;32073;49.166;8.076;2023-06-14T05:51:04;28.30;32.20
46366;DHT22;32073;49.166;8.076;2023-06-14T06:00:20;28.10;32.00
46366;DHT22;32073;49.166;8.076;2023-06-14T06:04:54;27.80;30.60
46366;DHT22;32073;49.166;8.076;2023-06-14T06:08:54;27.50;30.50
46366;DHT22;32073;49.166;8.076;2023-06-14T06:12:55;27.20;30.30
46366;DHT22;32073;49.166;8.076;2023-06-14T06:16:55;26.80;30.40
46366;DHT22;32073;49.166;8.076;2023-06-14T06:20:56;26.40;30.50
46366;DHT22;32073;49.166;8.076;2023-06-14T06:24:57;26.10;30.60
46366;DHT22;32073;49.166;8.076;2023-06-14T06:28:58;25.70;30.80
46366;DHT22;32073;49.166;8.076;2023-06-14T06:32:59;25.40;30.90
46366;DHT22;32073;49.166;8.076;2023-06-14T06:37:00;25.20;31.10
46366;DHT22;32073;49.166;8.076;2023-06-14T06:41:01;24.80;31.30
46366;DHT22;32073;49.166;8.076;2023-06-14T06:45:02;24.60;31.60
46366;DHT22;32073;49.166;8.076;2023-06-14T06:49:03;24.40;31.80
46366;DHT22;32073;49.166;8.076;2023-06-14T06:53:03;24.20;32.00
46366;DHT22;32073;49.166;8.076;2023-06-14T06:57:05;24.10;32.30
46366;DHT22;32073;49.166;8.076;2023-06-14T07:01:06;23.90;32.40
46366;DHT22;32073;49.166;8.076;2023-06-14T07:05:09;23.90;32.60
46366;DHT22;32073;49.166;8.076;2023-06-14T07:09:10;23.80;32.70
46366;DHT22;32073;49.166;8.076;2023-06-14T07:13:15;23.90;32.90
46366;DHT22;32073;49.166;8.076;2023-06-14T07:17:15;23.70;33.10
46366;DHT22;32073;49.166;8.076;2023-06-14T07:21:16;23.80;33.10
46366;DHT22;32073;49.166;8.076;2023-06-14T07:25:17;23.70;33.10
46366;DHT22;32073;49.166;8.076;2023-06-14T07:29:20;23.70;33.30
46366;DHT22;32073;49.166;8.076;2023-06-14T07:33:21;23.80;33.50
46366;DHT22;32073;49.166;8.076;2023-06-14T07:37:22;23.80;33.40
46366;DHT22;32073;49.166;8.076;2023-06-14T07:41:23;23.80;33.40
46366;DHT22;32073;49.166;8.076;2023-06-14T07:45:24;23.90;33.50
46366;DHT22;32073;49.166;8.076;2023-06-14T07:49:24;23.90;33.70
46366;DHT22;32073;49.166;8.076;2023-06-14T07:53:25;24.00;33.70
46366;DHT22;32073;49.166;8.076;2023-06-14T07:57:26;24.00;33.70
46366;DHT22;32073;49.166;8.076;2023-06-14T08:01:27;23.90;33.80
46366;DHT22;32073;49.166;8.076;2023-06-14T08:05:28;24.00;34.50
46366;DHT22;32073;49.166;8.076;2023-06-14T08:09:29;24.00;33.80
46366;DHT22;32073;49.166;8.076;2023-06-14T08:13:30;24.00;33.90
46366;DHT22;32073;49.166;8.076;2023-06-14T08:17:30;24.10;34.20
46366;DHT22;32073;49.166;8.076;2023-06-14T08:21:31;24.10;34.10
46366;DHT22;32073;49.166;8.076;2023-06-14T08:25:33;24.30;34.20
46366;DHT22;32073;49.166;8.076;2023-06-14T08:29:34;24.30;34.30
46366;DHT22;32073;49.166;8.076;2023-06-14T08:33:35;24.30;34.40
46366;DHT22;32073;49.166;8.076;2023-06-14T08:37:40;24.40;34.40
46366;DHT22;32073;49.166;8.076;2023-06-14T08:41:44;24.50;34.50
46366;DHT22;32073;49.166;8.076;2023-06-14T08:45:48;24.50;34.50
46366;DHT22;32073;49.166;8.076;2023-06-14T08:49:55;24.50;34.50
46366;DHT22;32073;49.166;8.076;2023-06-14T08:53:57;24.70;34.50
46366;DHT22;32073;49.166;8.076;2023-06-14T08:57:58;24.60;34.40
46366;DHT22;32073;49.166;8.076;2023-06-14T09:01:59;24.60;34.40
46366;DHT22;32073;49.166;8.076;2023-06-14T09:06:00;24.80;34.40
46366;DHT22;32073;49.166;8.076;2023-06-14T09:10:09;24.80;34.40
46366;DHT22;32073;49.166;8.076;2023-06-14T09:14:14;24.90;34.40
46366;DHT22;32073;49.166;8.076;2023-06-14T09:18:14;24.90;34.30
46366;DHT22;32073;49.166;8.076;2023-06-14T09:22:16;25.10;34.10
46366;DHT22;32073;49.166;8.076;2023-06-14T09:26:18;25.10;34.10
46366;DHT22;32073;49.166;8.076;2023-06-14T09:30:23;25.20;34.20
46366;DHT22;32073;49.166;8.076;2023-06-14T09:34:24;25.30;34.20
46366;DHT22;32073;49.166;8.076;2023-06-14T09:38:24;25.20;34.10
46366;DHT22;32073;49.166;8.076;2023-06-14T09:42:26;25.30;34.10
46366;DHT22;32073;49.166;8.076;2023-06-14T09:46:28;25.40;33.90
46366;DHT22;32073;49.166;8.076;2023-06-14T09:50:30;25.40;33.50
46366;DHT22;32073;49.166;8.076;2023-06-14T09:54:31;25.50;33.30
46366;DHT22;32073;49.166;8.076;2023-06-14T09:58:35;25.40;33.10
46366;DHT22;32073;49.166;8.076;2023-06-14T10:02:38;25.60;33.30
46366;DHT22;32073;49.166;8.076;2023-06-14T10:06:45;25.70;33.20
46366;DHT22;32073;49.166;8.076;2023-06-14T10:10:46;25.90;33.20
46366;DHT22;32073;49.166;8.076;2023-06-14T10:14:51;25.90;33.40
46366;DHT22;32073;49.166;8.076;2023-06-14T10:19:18;26.00;33.10
46366;DHT22;32073;49.166;8.076;2023-06-14T10:23:23;26.10;32.80
46366;DHT22;32073;49.166;8.076;2023-06-14T10:27:25;26.20;32.60
46366;DHT22;32073;49.166;8.076;2023-06-14T10:31:43;26.30;32.50
46366;DHT22;32073;49.166;8.076;2023-06-14T10:35:45;26.40;32.10
46366;DHT22;32073;49.166;8.076;2023-06-14T10:39:46;26.50;31.70
46366;DHT22;32073;49.166;8.076;2023-06-14T10:43:47;26.50;31.90
46366;DHT22;32073;49.166;8.076;2023-06-14T10:47:49;26.60;32.30
46366;DHT22;32073;49.166;8.076;2023-06-14T10:51:52;26.60;31.60
46366;DHT22;32073;49.166;8.076;2023-06-14T10:55:56;26.70;31.30
46366;DHT22;32073;49.166;8.076;2023-06-14T10:59:57;26.80;31.10
46366;DHT22;32073;49.166;8.076;2023-06-14T11:04:07;26.80;31.60
46366;DHT22;32073;49.166;8.076;2023-06-14T11:12:41;26.70;31.20
46366;DHT22;32073;49.166;8.076;2023-06-14T11:16:50;26.80;30.80
46366;DHT22;32073;49.166;8.076;2023-06-14T11:20:50;26.80;31.00
46366;DHT22;32073;49.166;8.076;2023-06-14T11:24:51;26.90;30.60
46366;DHT22;32073;49.166;8.076;2023-06-14T11:28:55;27.00;30.20
46366;DHT22;32073;49.166;8.076;2023-06-14T11:32:57;27.00;30.20
46366;DHT22;32073;49.166;8.076;2023-06-14T11:36:59;27.00;30.00
46366;DHT22;32073;49.166;8.076;2023-06-14T11:41:00;27.20;29.90
46366;DHT22;32073;49.166;8.076;2023-06-14T11:45:02;27.10;30.00
46366;DHT22;32073;49.166;8.076;2023-06-14T11:49:07;27.10;29.80
46366;DHT22;32073;49.166;8.076;2023-06-14T11:53:09;27.20;29.80
46366;DHT22;32073;49.166;8.076;2023-06-14T11:57:10;27.20;29.60
46366;DHT22;32073;49.166;8.076;2023-06-14T12:01:16;27.20;29.80
46366;DHT22;32073;49.166;8.076;2023-06-14T12:05:21;27.30;29.50
46366;DHT22;32073;49.166;8.076;2023-06-14T12:09:22;27.40;29.40
46366;DHT22;32073;49.166;8.076;2023-06-14T12:13:25;27.30;29.50
46366;DHT22;32073;49.166;8.076;2023-06-14T12:17:26;27.30;29.40
46366;DHT22;32073;49.166;8.076;2023-06-14T12:21:31;27.30;29.30
46366;DHT22;32073;49.166;8.076;2023-06-14T12:25:35;27.40;29.30
46366;DHT22;32073;49.166;8.076;2023-06-14T12:29:37;27.50;29.10
46366;DHT22;32073;49.166;8.076;2023-06-14T12:33:38;27.40;29.10
46366;DHT22;32073;49.166;8.076;2023-06-14T12:37:40;27.40;28.90
46366;DHT22;32073;49.166;8.076;2023-06-14T12:41:40;27.50;29.00
46366;DHT22;32073;49.166;8.076;2023-06-14T12:45:42;27.50;28.70
46366;DHT22;32073;49.166;8.076;2023-06-14T12:49:42;27.50;28.80
46366;DHT22;32073;49.166;8.076;2023-06-14T12:53:46;27.50;29.00
46366;DHT22;32073;49.166;8.076;2023-06-14T12:57:47;27.70;29.10
46366;DHT22;32073;49.166;8.076;2023-06-14T13:01:49;27.60;28.90
46366;DHT22;32073;49.166;8.076;2023-06-14T13:05:50;27.60;29.40
46366;DHT22;32073;49.166;8.076;2023-06-14T13:09:51;27.80;29.10
46366;DHT22;32073;49.166;8.076;2023-06-14T13:13:52;27.70;29.20
46366;DHT22;32073;49.166;8.076;2023-06-14T13:17:52;27.80;29.00
46366;DHT22;32073;49.166;8.076;2023-06-14T13:21:53;27.90;29.20
46366;DHT22;32073;49.166;8.076;2023-06-14T13:25:54;27.90;29.10
46366;DHT22;32073;49.166;8.076;2023-06-14T13:29:55;27.90;29.60
46366;DHT22;32073;49.166;8.076;2023-06-14T13:33:55;27.90;29.00
46366;DHT22;32073;49.166;8.076;2023-06-14T13:37:56;27.90;29.00
46366;DHT22;32073;49.166;8.076;2023-06-14T13:41:57;28.00;28.80
46366;DHT22;32073;49.166;8.076;2023-06-14T13:45:57;28.00;28.70
46366;DHT22;32073;49.166;8.076;2023-06-14T13:49:58;28.00;28.80
46366;DHT22;32073;49.166;8.076;2023-06-14T13:53:59;28.20;29.50
46366;DHT22;32073;49.166;8.076;2023-06-14T13:57:59;28.10;28.70
46366;DHT22;32073;49.166;8.076;2023-06-14T14:02:00;28.00;28.70
46366;DHT22;32073;49.166;8.076;2023-06-14T14:06:01;28.00;28.70
46366;DHT22;32073;49.166;8.076;2023-06-14T14:10:03;28.20;28.70
46366;DHT22;32073;49.166;8.076;2023-06-14T14:14:04;28.20;28.60
46366;DHT22;32073;49.166;8.076;2023-06-14T14:18:05;28.20;29.20
46366;DHT22;32073;49.166;8.076;2023-06-14T14:22:06;28.30;28.80
46366;DHT22;32073;49.166;8.076;2023-06-14T14:26:06;28.30;28.70
46366;DHT22;32073;49.166;8.076;2023-06-14T14:30:07;28.50;28.70
46366;DHT22;32073;49.166;8.076;2023-06-14T14:34:08;28.40;28.60
46366;DHT22;32073;49.166;8.076;2023-06-14T14:38:09;28.50;28.80
46366;DHT22;32073;49.166;8.076;2023-06-14T14:42:10;28.40;28.90
46366;DHT22;32073;49.166;8.076;2023-06-14T14:46:23;28.50;28.90
46366;DHT22;32073;49.166;8.076;2023-06-14T14:50:43;28.60;28.90
46366;DHT22;32073;49.166;8.076;2023-06-14T14:54:43;28.60;28.80
46366;DHT22;32073;49.166;8.076;2023-06-14T14:58:44;28.60;28.70
46366;DHT22;32073;49.166;8.076;2023-06-14T15:02:45;28.60;28.50
46366;DHT22;32073;49.166;8.076;2023-06-14T15:06:45;28.60;28.40
46366;DHT22;32073;49.166;8.076;2023-06-14T15:10:46;28.50;28.40
46366;DHT22;32073;49.166;8.076;2023-06-14T15:14:52;28.50;28.50
46366;DHT22;32073;49.166;8.076;2023-06-14T15:18:53;28.60;28.50
46366;DHT22;32073;49.166;8.076;2023-06-14T15:22:54;28.50;28.50
46366;DHT22;32073;49.166;8.076;2023-06-14T15:27:01;28.50;28.50
46366;DHT22;32073;49.166;8.076;2023-06-14T15:31:03;28.50;28.50
46366;DHT22;32073;49.166;8.076;2023-06-14T15:35:04;28.60;28.60
46366;DHT22;32073;49.166;8.076;2023-06-14T15:39:05;28.50;28.40
46366;DHT22;32073;49.166;8.076;2023-06-14T15:43:05;28.50;28.60
46366;DHT22;32073;49.166;8.076;2023-06-14T15:47:06;28.50;28.40
46366;DHT22;32073;49.166;8.076;2023-06-14T15:51:19;28.40;28.30
46366;DHT22;32073;49.166;8.076;2023-06-14T15:55:54;28.40;28.30
46366;DHT22;32073;49.166;8.076;2023-06-14T15:59:57;28.40;28.30
46366;DHT22;32073;49.166;8.076;2023-06-14T16:03:58;28.40;28.40
46366;DHT22;32073;49.166;8.076;2023-06-14T16:07:59;28.40;28.30
46366;DHT22;32073;49.166;8.076;2023-06-14T16:12:00;28.40;28.40
46366;DHT22;32073;49.166;8.076;2023-06-14T16:16:02;28.30;28.30
46366;DHT22;32073;49.166;8.076;2023-06-14T16:20:03;28.20;28.30
46366;DHT22;32073;49.166;8.076;2023-06-14T16:24:04;28.20;28.40
46366;DHT22;32073;49.166;8.076;2023-06-14T16:28:08;28.10;28.30
46366;DHT22;32073;49.166;8.076;2023-06-14T16:32:10;28.10;28.40
46366;DHT22;32073;49.166;8.076;2023-06-14T16:36:10;28.10;28.40
46366;DHT22;32073;49.166;8.076;2023-06-14T16:40:12;28.00;28.90
46366;DHT22;32073;49.166;8.076;2023-06-14T16:44:13;28.00;28.40
46366;DHT22;32073;49.166;8.076;2023-06-14T16:48:14;28.00;28.40
46366;DHT22;32073;49.166;8.076;2023-06-14T16:52:15;28.00;28.70
46366;DHT22;32073;49.166;8.076;2023-06-14T16:56:16;28.00;28.50
46366;DHT22;32073;49.166;8.076;2023-06-14T17:00:17;27.90;28.50
46366;DHT22;32073;49.166;8.076;2023-06-14T17:04:18;28.00;28.60
46366;DHT22;32073;49.166;8.076;2023-06-14T17:08:19;28.00;28.60
46366;DHT22;32073;49.166;8.076;2023-06-14T17:12:20;28.00;28.60
46366;DHT22;32073;49.166;8.076;2023-06-14T17:16:21;28.00;28.60
46366;DHT22;32073;49.166;8.076;2023-06-14T17:20:21;28.00;28.60
46366;DHT22;32073;49.166;8.076;2023-06-14T17:24:23;28.10;28.60
46366;DHT22;32073;49.166;8.076;2023-06-14T17:28:25;28.10;28.60
46366;DHT22;32073;49.166;8.076;2023-06-14T17:32:25;28.10;28.60
46366;DHT22;32073;49.166;8.076;2023-06-14T17:36:26;28.10;28.60
46366;DHT22;32073;49.166;8.076;2023-06-14T17:40:27;28.10;28.60
46366;DHT22;32073;49.166;8.076;2023-06-14T17:44:27;28.10;28.50
46366;DHT22;32073;49.166;8.076;2023-06-14T17:48:28;28.00;28.50
46366;DHT22;32073;49.166;8.076;2023-06-14T17:52:33;28.00;28.50
46366;DHT22;32073;49.166;8.076;2023-06-14T17:56:34;28.00;28.60
46366;DHT22;32073;49.166;8.076;2023-06-14T18:00:35;28.00;28.60
46366;DHT22;32073;49.166;8.076;2023-06-14T18:04:35;28.00;28.60
46366;DHT22;32073;49.166;8.076;2023-06-14T18:08:36;28.00;28.50
46366;DHT22;32073;49.166;8.076;2023-06-14T18:12:36;28.00;28.50
46366;DHT22;32073;49.166;8.076;2023-06-14T18:16:37;28.00;28.50
46366;DHT22;32073;49.166;8.076;2023-06-14T18:20:40;27.90;28.50
46366;DHT22;32073;49.166;8.076;2023-06-14T18:24:41;27.90;28.50
46366;DHT22;32073;49.166;8.076;2023-06-14T18:28:42;27.90;28.50
46366;DHT22;32073;49.166;8.076;2023-06-14T18:32:43;27.90;28.60
46366;DHT22;32073;49.166;8.076;2023-06-14T18:36:47;27.80;28.50
46366;DHT22;32073;49.166;8.076;2023-06-14T18:40:47;27.80;28.60
46366;DHT22;32073;49.166;8.076;2023-06-14T18:44:51;27.80;28.60
46366;DHT22;32073;49.166;8.076;2023-06-14T18:48:52;27.60;28.60
46366;DHT22;32073;49.166;8.076;2023-06-14T18:52:53;27.70;28.80
46366;DHT22;32073;49.166;8.076;2023-06-14T18:56:54;27.50;28.70
46366;DHT22;32073;49.166;8.076;2023-06-14T19:00:54;27.60;28.80
46366;DHT22;32073;49.166;8.076;2023-06-14T19:04:55;27.50;28.70
46366;DHT22;32073;49.166;8.076;2023-06-14T19:08:56;27.40;28.80
46366;DHT22;32073;49.166;8.076;2023-06-14T19:12:56;27.30;28.70
46366;DHT22;32073;49.166;8.076;2023-06-14T19:16:57;27.20;28.70
46366;DHT22;32073;49.166;8.076;2023-06-14T19:20:57;27.10;28.80
46366;DHT22;32073;49.166;8.076;2023-06-14T19:24:58;27.00;28.80
46366;DHT22;32073;49.166;8.076;2023-06-14T19:28:59;26.90;28.90
46366;DHT22;32073;49.166;8.076;2023-06-14T19:32:59;26.70;28.90
46366;DHT22;32073;49.166;8.076;2023-06-14T19:37:00;26.60;29.00
46366;DHT22;32073;49.166;8.076;2023-06-14T19:41:02;26.50;29.00
46366;DHT22;32073;49.166;8.076;2023-06-14T19:45:03;26.50;29.10
46366;DHT22;32073;49.166;8.076;2023-06-14T19:49:04;26.30;29.10
46366;DHT22;32073;49.166;8.076;2023-06-14T19:53:04;26.30;29.20
46366;DHT22;32073;49.166;8.076;2023-06-14T19:57:05;26.20;29.20
46366;DHT22;32073;49.166;8.076;2023-06-14T20:01:06;26.10;29.20
46366;DHT22;32073;49.166;8.076;2023-06-14T20:05:07;25.90;29.20
46366;DHT22;32073;49.166;8.076;2023-06-14T20:09:08;25.80;29.30
46366;DHT22;32073;49.166;8.076;2023-06-14T20:13:13;25.70;29.30
46366;DHT22;32073;49.166;8.076;2023-06-14T20:17:14;25.70;29.40
46366;DHT22;32073;49.166;8.076;2023-06-14T20:21:15;25.60;29.50
46366;DHT22;32073;49.166;8.076;2023-06-14T20:25:16;25.50;29.50
46366;DHT22;32073;49.166;8.076;2023-06-14T20:29:18;25.40;29.50
46366;DHT22;32073;49.166;8.076;2023-06-14T20:33:18;25.40;29.60
46366;DHT22;32073;49.166;8.076;2023-06-14T20:37:19;25.30;29.60
46366;DHT22;32073;49.166;8.076;2023-06-14T20:41:20;25.20;29.60
46366;DHT22;32073;49.166;8.076;2023-06-14T20:45:21;25.10;29.60
46366;DHT22;32073;49.166;8.076;2023-06-14T20:49:21;25.10;29.70
46366;DHT22;32073;49.166;8.076;2023-06-14T20:53:22;25.00;29.70
46366;DHT22;32073;49.166;8.076;2023-06-14T20:57:23;24.90;29.80
46366;DHT22;32073;49.166;8.076;2023-06-14T21:01:24;24.90;29.80
46366;DHT22;32073;49.166;8.076;2023-06-14T21:05:35;24.70;29.80
46366;DHT22;32073;49.166;8.076;2023-06-14T21:09:35;24.70;29.90
46366;DHT22;32073;49.166;8.076;2023-06-14T21:13:36;24.70;30.00
46366;DHT22;32073;49.166;8.076;2023-06-14T21:17:37;24.70;30.00
46366;DHT22;32073;49.166;8.076;2023-06-14T21:21:38;24.60;30.10
46366;DHT22;32073;49.166;8.076;2023-06-14T21:25:39;24.60;30.30
46366;DHT22;32073;49.166;8.076;2023-06-14T21:29:39;24.60;30.30
46366;DHT22;32073;49.166;8.076;2023-06-14T21:33:40;24.50;30.40
46366;DHT22;32073;49.166;8.076;2023-06-14T21:37:40;24.40;30.50
46366;DHT22;32073;49.166;8.076;2023-06-14T21:41:41;24.30;30.50
46366;DHT22;32073;49.166;8.076;2023-06-14T21:45:42;24.30;30.60
46366;DHT22;32073;49.166;8.076;2023-06-14T21:49:44;24.30;30.80
46366;DHT22;32073;49.166;8.076;2023-06-14T21:53:44;24.20;30.90
46366;DHT22;32073;49.166;8.076;2023-06-14T21:57:49;24.10;30.90
46366;DHT22;32073;49.166;8.076;2023-06-14T22:01:50;24.10;31.10
46366;DHT22;32073;49.166;8.076;2023-06-14T22:05:51;24.00;31.10
46366;DHT22;32073;49.166;8.076;2023-06-14T22:09:51;24.00;31.30
46366;DHT22;32073;49.166;8.076;2023-06-14T22:13:52;23.90;31.40
46366;DHT22;32073;49.166;8.076;2023-06-14T22:17:53;24.00;31.70
46366;DHT22;32073;49.166;8.076;2023-06-14T22:21:56;23.80;31.70
46366;DHT22;32073;49.166;8.076;2023-06-14T22:25:57;23.70;32.50
46366;DHT22;32073;49.166;8.076;2023-06-14T22:29:59;23.70;32.00
46366;DHT22;32073;49.166;8.076;2023-06-14T22:34:00;23.60;32.10
46366;DHT22;32073;49.166;8.076;2023-06-14T22:38:00;23.50;32.10
46366;DHT22;32073;49.166;8.076;2023-06-14T22:42:04;23.50;32.30
46366;DHT22;32073;49.166;8.076;2023-06-14T22:46:10;23.40;32.40
46366;DHT22;32073;49.166;8.076;2023-06-14T22:50:19;23.40;32.50
46366;DHT22;32073;49.166;8.076;2023-06-14T22:54:20;23.30;32.50
46366;DHT22;32073;49.166;8.076;2023-06-14T22:58:21;23.30;32.60
46366;DHT22;32073;49.166;8.076;2023-06-14T23:02:25;23.30;32.70
46366;DHT22;32073;49.166;8.076;2023-06-14T23:06:26;23.30;32.80
46366;DHT22;32073;49.166;8.076;2023-06-14T23:10:26;23.20;32.80
46366;DHT22;32073;49.166;8.076;2023-06-14T23:14:27;23.10;32.90
46366;DHT22;32073;49.166;8.076;2023-06-14T23:18:29;23.10;33.00
46366;DHT22;32073;49.166;8.076;2023-06-14T23:22:29;23.10;33.10
46366;DHT22;32073;49.166;8.076;2023-06-14T23:26:35;23.10;33.20
46366;DHT22;32073;49.166;8.076;2023-06-14T23:30:36;23.00;33.20
46366;DHT22;32073;49.166;8.076;2023-06-14T23:34:37;23.00;33.30
46366;DHT22;32073;49.166;8.076;2023-06-14T23:38:38;23.00;33.40
46366;DHT22;32073;49.166;8.076;2023-06-14T23:42:43;23.00;33.40
46366;DHT22;32073;49.166;8.076;2023-06-14T23:46:43;23.00;33.50
46366;DHT22;32073;49.166;8.076;2023-06-14T23:50:44;22.90;33.50
46366;DHT22;32073;49.166;8.076;2023-06-14T23:54:45;22.80;33.50
46366;DHT22;32073;49.166;8.076;2023-06-14T23:58:47;22.80;33.70
